Time;durP1;ratioP1;P1;durP2;ratioP2;P2;SDS_P1;SDS_P2;PMS_P1;PMS_P2;Temp;Humidity;BMP_temperature;BMP_pressure;BME280_temperature;BME280_humidity;BME280_pressure;Samples;Min_cycle;Max_cycle;Signal;HPM_P1;HPM_P2
2022/03/30 00:01:32;;;;;;;1.57;1.47;;;11.10;98.00;;;;;;6120479;23;20757;-72
2022/03/30 00:03:59;;;;;;;3.23;2.10;;;11.10;98.00;;;;;;6120555;23;20418;-72
2022/03/30 00:06:26;;;;;;;2.20;1.73;;;11.10;98.00;;;;;;6095044;23;20460;-73
2022/03/30 00:08:55;;;;;;;2.90;2.07;;;10.90;98.00;;;;;;6095031;23;20524;-72
2022/03/30 00:11:22;;;;;;;2.70;1.80;;;10.90;98.00;;;;;;6095066;23;20427;-72
2022/03/30 00:13:49;;;;;;;3.43;2.10;;;10.80;98.00;;;;;;6120430;23;20445;-72
2022/03/30 00:16:16;;;;;;;1.93;1.90;;;10.70;98.00;;;;;;6120594;23;20745;-73
2022/03/30 00:18:43;;;;;;;3.33;2.23;;;10.90;98.00;;;;;;6120561;23;20457;-73
2022/03/30 00:21:10;;;;;;;4.60;2.13;;;10.90;98.00;;;;;;6120425;23;20791;-72
2022/03/30 00:23:37;;;;;;;2.80;2.63;;;11.00;98.00;;;;;;6120339;23;20414;-72
2022/03/30 00:26:06;;;;;;;1.97;1.87;;;10.80;98.00;;;;;;6119845;23;20438;-73
2022/03/30 00:28:33;;;;;;;3.20;2.13;;;10.60;98.00;;;;;;6120213;23;20446;-72
2022/03/30 00:31:00;;;;;;;3.30;2.60;;;10.60;98.00;;;;;;6120341;23;20459;-72
2022/03/30 00:33:28;;;;;;;2.43;2.07;;;10.60;98.00;;;;;;6120243;23;20417;-73
2022/03/30 00:35:55;;;;;;;2.97;1.97;;;10.70;98.00;;;;;;6119332;23;20423;-72
2022/03/30 00:38:22;;;;;;;3.10;1.73;;;10.70;98.00;;;;;;6119685;23;20424;-73
2022/03/30 00:40:49;;;;;;;2.47;1.70;;;10.50;98.00;;;;;;6119792;23;20407;-72
2022/03/30 00:43:17;;;;;;;4.50;3.50;;;10.60;98.00;;;;;;6119912;23;20403;-72
2022/03/30 00:45:45;;;;;;;2.93;2.03;;;10.50;98.00;;;;;;6120158;23;20456;-72
2022/03/30 00:48:12;;;;;;;2.30;1.57;;;10.50;98.00;;;;;;6120133;23;20497;-71
2022/03/30 00:50:39;;;;;;;3.23;2.10;;;10.60;98.00;;;;;;6119864;23;20428;-73
2022/03/30 00:53:06;;;;;;;3.37;1.87;;;10.60;98.00;;;;;;6119888;23;20425;-73
2022/03/30 00:55:34;;;;;;;4.73;2.70;;;10.80;98.00;;;;;;6120079;23;20454;-72
2022/03/30 00:58:01;;;;;;;4.10;2.33;;;10.90;98.00;;;;;;6120231;23;20425;-72
2022/03/30 01:00:31;;;;;;;3.40;2.27;;;10.80;98.00;;;;;;6120061;23;20462;-73
2022/03/30 01:02:58;;;;;;;1.30;1.30;;;10.70;98.00;;;;;;6119989;23;20430;-73
2022/03/30 01:05:27;;;;;;;1.60;1.47;;;10.90;98.00;;;;;;6120352;23;20406;-71
2022/03/30 01:07:57;;;;;;;2.17;1.83;;;10.80;98.00;;;;;;6120699;23;20431;-72
2022/03/30 01:10:25;;;;;;;2.80;2.10;;;10.60;98.00;;;;;;6120275;23;20402;-73
2022/03/30 01:12:54;;;;;;;1.60;1.50;;;10.50;98.00;;;;;;6119896;23;20457;-72
2022/03/30 01:15:22;;;;;;;4.80;2.17;;;10.60;98.00;;;;;;6120786;23;21000;-72
2022/03/30 01:17:53;;;;;;;3.63;2.17;;;10.80;98.00;;;;;;6120554;23;20421;-73
2022/03/30 01:20:22;;;;;;;2.73;2.00;;;10.90;98.00;;;;;;6120860;23;20441;-72
2022/03/30 01:22:51;;;;;;;3.53;1.67;;;10.80;98.00;;;;;;6120160;23;20421;-71
2022/03/30 01:25:19;;;;;;;13.77;2.60;;;10.80;98.00;;;;;;6119941;23;20446;-72
2022/03/30 01:27:46;;;;;;;2.37;2.17;;;10.90;98.00;;;;;;6119834;23;20844;-73
2022/03/30 01:33:03;;;;;;;3.60;2.20;;;10.80;98.00;;;;;;6119768;23;20415;-73
2022/03/30 01:35:30;;;;;;;2.73;1.67;;;10.70;98.00;;;;;;6119931;23;20738;-72
2022/03/30 01:38:07;;;;;;;1.70;1.40;;;10.80;98.00;;;;;;6119841;23;20457;-74
2022/03/30 01:40:35;;;;;;;5.57;2.27;;;11.00;98.00;;;;;;6119745;23;20462;-72
2022/03/30 01:43:02;;;;;;;3.80;1.80;;;11.00;98.00;;;;;;6119988;23;20414;-72
2022/03/30 01:45:29;;;;;;;2.50;1.90;;;11.00;98.00;;;;;;6119446;23;20457;-73
2022/03/30 01:47:58;;;;;;;3.00;2.57;;;10.90;98.00;;;;;;6119749;23;20453;-72
2022/03/30 01:50:26;;;;;;;3.00;2.80;;;10.80;98.00;;;;;;6120699;23;20430;-72
2022/03/30 01:52:53;;;;;;;1.63;1.40;;;10.70;98.00;;;;;;6120662;23;20405;-73
2022/03/30 01:55:23;;;;;;;4.63;2.57;;;10.60;98.00;;;;;;6120817;23;20715;-72
2022/03/30 01:57:50;;;;;;;4.57;1.63;;;10.60;98.00;;;;;;6121147;23;20405;-73
2022/03/30 02:00:19;;;;;;;1.93;1.83;;;10.70;98.00;;;;;;6121185;23;20407;-72
2022/03/30 02:02:47;;;;;;;1.97;1.60;;;10.60;98.00;;;;;;6121209;23;20958;-72
2022/03/30 02:05:16;;;;;;;6.10;2.67;;;10.60;98.00;;;;;;6120822;23;20914;-72
2022/03/30 02:07:43;;;;;;;3.90;2.30;;;10.40;98.00;;;;;;6120677;23;20420;-72
2022/03/30 02:10:10;;;;;;;2.43;1.87;;;10.40;98.00;;;;;;6121159;23;20417;-72
2022/03/30 02:12:40;;;;;;;2.73;1.90;;;10.40;98.00;;;;;;6121040;23;20447;-73
2022/03/30 02:15:10;;;;;;;2.53;2.17;;;10.40;98.00;;;;;;6120559;23;20460;-73
2022/03/30 02:17:39;;;;;;;4.33;2.27;;;10.20;98.00;;;;;;6120576;23;20410;-72
2022/03/30 02:20:07;;;;;;;2.17;1.83;;;10.20;98.00;;;;;;6120977;23;20417;-73
2022/03/30 02:22:34;;;;;;;2.27;1.53;;;10.10;98.00;;;;;;6120843;23;20425;-72
2022/03/30 02:25:01;;;;;;;2.10;1.97;;;10.10;98.00;;;;;;6120531;23;20917;-72
2022/03/30 02:27:30;;;;;;;4.20;2.57;;;10.30;98.00;;;;;;6120500;23;20415;-72
2022/03/30 02:29:58;;;;;;;2.80;1.73;;;10.60;98.00;;;;;;6120901;23;20504;-72
2022/03/30 02:32:25;;;;;;;2.83;2.23;;;10.70;98.00;;;;;;6120441;23;20939;-73
2022/03/30 02:34:52;;;;;;;2.37;2.10;;;10.70;98.00;;;;;;6120882;23;20423;-71
2022/03/30 02:37:20;;;;;;;3.80;2.70;;;10.70;98.00;;;;;;6094927;23;20398;-72
2022/03/30 02:39:47;;;;;;;4.07;1.60;;;10.60;98.00;;;;;;6120645;23;20909;-72
2022/03/30 02:42:14;;;;;;;1.83;1.80;;;10.60;98.00;;;;;;6120943;23;20435;-72
2022/03/30 02:44:41;;;;;;;3.57;2.70;;;10.50;98.00;;;;;;6120901;23;20481;-72
2022/03/30 02:47:10;;;;;;;4.17;1.97;;;10.50;98.00;;;;;;6120612;23;20417;-72
2022/03/30 02:49:38;;;;;;;2.90;2.23;;;10.70;98.00;;;;;;6120224;23;20461;-71
2022/03/30 02:52:05;;;;;;;2.30;1.90;;;10.60;98.00;;;;;;6120754;23;21193;-72
2022/03/30 02:54:33;;;;;;;2.57;2.37;;;10.60;98.00;;;;;;6121006;23;20733;-73
2022/03/30 02:57:01;;;;;;;2.10;1.63;;;10.60;98.00;;;;;;6120466;23;20421;-71
2022/03/30 02:59:30;;;;;;;2.03;1.70;;;10.40;98.00;;;;;;6120816;23;20418;-72
2022/03/30 03:01:59;;;;;;;1.37;1.23;;;10.40;98.00;;;;;;6120294;23;20420;-73
2022/03/30 03:04:28;;;;;;;1.83;1.73;;;10.20;98.00;;;;;;6120746;23;20452;-73
2022/03/30 03:06:55;;;;;;;3.00;2.10;;;10.20;98.00;;;;;;6120704;23;20858;-72
2022/03/30 03:09:22;;;;;;;2.53;2.00;;;10.20;98.00;;;;;;6095147;23;20511;-73
2022/03/30 03:11:49;;;;;;;1.77;1.70;;;10.10;98.00;;;;;;6120632;23;20436;-72
2022/03/30 03:14:16;;;;;;;2.03;1.90;;;10.10;98.00;;;;;;6120676;23;20432;-73
2022/03/30 03:16:43;;;;;;;3.90;2.30;;;10.10;98.00;;;;;;6120608;23;20398;-72
2022/03/30 03:19:10;;;;;;;2.57;2.07;;;10.10;98.00;;;;;;6120710;23;20402;-72
2022/03/30 03:21:39;;;;;;;1.80;1.77;;;10.10;98.00;;;;;;6120098;23;20425;-72
2022/03/30 03:24:06;;;;;;;3.00;2.50;;;10.10;98.00;;;;;;6120613;23;20423;-73
2022/03/30 03:26:34;;;;;;;2.40;1.87;;;10.20;98.00;;;;;;6120036;23;20418;-72
2022/03/30 03:29:02;;;;;;;2.03;1.93;;;10.20;98.00;;;;;;6094826;23;20521;-72
2022/03/30 03:31:28;;;;;;;5.47;2.70;;;10.20;98.00;;;;;;6120516;23;20424;-72
2022/03/30 03:33:55;;;;;;;2.20;2.07;;;10.30;98.00;;;;;;6120910;23;20418;-73
2022/03/30 03:36:23;;;;;;;2.40;2.00;;;10.30;98.00;;;;;;6120026;23;20423;-72
2022/03/30 03:38:51;;;;;;;2.97;2.03;;;10.30;98.00;;;;;;6120586;23;20420;-72
2022/03/30 03:41:19;;;;;;;9.53;2.03;;;10.30;98.00;;;;;;6120155;23;20453;-72
2022/03/30 03:43:46;;;;;;;2.43;1.50;;;10.20;98.00;;;;;;6120572;23;20410;-73
2022/03/30 03:46:13;;;;;;;3.20;2.10;;;10.30;98.00;;;;;;6094716;23;20430;-72
2022/03/30 03:48:40;;;;;;;5.60;2.33;;;10.40;98.00;;;;;;6094653;23;20444;-72
2022/03/30 03:51:07;;;;;;;4.43;2.70;;;10.40;98.00;;;;;;6119966;23;20817;-72
2022/03/30 03:53:35;;;;;;;3.30;2.40;;;10.50;98.00;;;;;;6120364;23;20421;-73
2022/03/30 03:56:03;;;;;;;1.80;1.57;;;10.50;98.00;;;;;;6120524;23;20398;-73
2022/03/30 03:58:30;;;;;;;1.63;1.50;;;10.50;98.00;;;;;;6120583;23;20432;-73
2022/03/30 04:00:58;;;;;;;2.10;1.80;;;10.40;98.00;;;;;;6120065;23;20922;-72
2022/03/30 04:03:25;;;;;;;2.73;2.20;;;10.40;98.00;;;;;;6120309;23;20420;-72
2022/03/30 04:05:51;;;;;;;2.10;1.77;;;10.20;98.00;;;;;;6120611;23;20454;-73
2022/03/30 04:08:20;;;;;;;3.63;1.80;;;10.20;98.00;;;;;;6120273;23;20455;-72
2022/03/30 04:10:47;;;;;;;3.87;2.60;;;10.20;98.00;;;;;;6120702;23;20403;-73
2022/03/30 04:13:16;;;;;;;3.40;2.03;;;10.20;98.00;;;;;;6119729;23;20897;-73
2022/03/30 04:15:43;;;;;;;3.10;1.90;;;10.30;98.00;;;;;;6120244;23;20402;-72
2022/03/30 04:18:11;;;;;;;2.17;1.93;;;10.30;98.00;;;;;;6095006;23;20398;-72
2022/03/30 04:20:44;;;;;;;1.73;1.63;;;10.20;98.00;;;;;;6120316;23;20464;-73
2022/03/30 04:23:11;;;;;;;3.60;2.73;;;10.40;98.00;;;;;;6120463;23;20407;-72
2022/03/30 04:25:38;;;;;;;12.63;1.93;;;10.30;98.00;;;;;;6094030;23;20427;-73
2022/03/30 04:28:05;;;;;;;1.60;1.50;;;10.40;98.00;;;;;;6120166;23;20473;-72
2022/03/30 04:30:33;;;;;;;2.50;1.70;;;10.60;98.00;;;;;;6120424;23;20456;-73
2022/03/30 04:33:00;;;;;;;4.10;2.63;;;10.40;98.00;;;;;;6120360;23;20418;-71
2022/03/30 04:35:27;;;;;;;2.00;1.50;;;10.30;98.00;;;;;;6094948;23;20867;-71
2022/03/30 04:37:56;;;;;;;5.10;2.00;;;10.30;98.00;;;;;;6120309;23;20488;-73
2022/03/30 04:40:24;;;;;;;1.70;1.50;;;10.30;98.00;;;;;;6094179;23;20428;-72
2022/03/30 04:42:52;;;;;;;2.20;1.43;;;10.30;98.00;;;;;;6120247;23;20421;-72
2022/03/30 04:45:20;;;;;;;3.03;2.30;;;10.30;98.00;;;;;;6120279;23;20457;-72
2022/03/30 04:47:53;;;;;;;3.10;2.50;;;10.30;98.00;;;;;;6120313;23;20401;-71
2022/03/30 04:50:21;;;;;;;5.90;2.57;;;10.30;98.00;;;;;;6119961;23;20838;-71
2022/03/30 04:52:48;;;;;;;2.90;2.20;;;10.30;98.00;;;;;;6120156;23;20424;-73
2022/03/30 04:55:15;;;;;;;2.40;2.03;;;10.30;98.00;;;;;;6120190;23;20451;-72
2022/03/30 04:57:42;;;;;;;4.43;2.20;;;10.30;98.00;;;;;;6120223;23;20414;-72
2022/03/30 05:00:12;;;;;;;3.40;3.00;;;10.10;98.00;;;;;;6119822;23;20933;-72
2022/03/30 05:02:40;;;;;;;2.40;2.13;;;10.10;98.00;;;;;;6094043;23;20401;-71
2022/03/30 05:05:09;;;;;;;2.13;1.53;;;10.30;98.00;;;;;;6120051;23;20445;-73
2022/03/30 05:07:37;;;;;;;4.13;2.00;;;10.30;98.00;;;;;;6094545;23;20808;-72
2022/03/30 05:10:05;;;;;;;3.03;2.57;;;10.20;98.00;;;;;;6120105;23;20525;-72
2022/03/30 05:12:32;;;;;;;5.13;2.90;;;10.20;98.00;;;;;;6120038;23;20457;-71
2022/03/30 05:14:59;;;;;;;3.20;2.53;;;10.20;98.00;;;;;;6120040;23;20457;-72
2022/03/30 05:17:26;;;;;;;2.00;1.90;;;10.20;98.00;;;;;;6094008;23;20445;-72
2022/03/30 05:19:53;;;;;;;1.60;1.53;;;10.30;98.00;;;;;;6119824;23;20506;-72
2022/03/30 05:22:21;;;;;;;1.77;1.37;;;10.20;98.00;;;;;;6120122;23;20778;-72
2022/03/30 05:24:48;;;;;;;3.07;2.23;;;10.40;98.00;;;;;;6119789;23;20876;-72
2022/03/30 05:27:15;;;;;;;3.27;2.70;;;10.40;98.00;;;;;;6120148;23;20709;-72
2022/03/30 05:29:42;;;;;;;4.37;3.00;;;10.40;98.00;;;;;;6119745;23;20468;-72
2022/03/30 05:32:09;;;;;;;3.90;2.13;;;10.30;98.00;;;;;;6119615;23;20493;-72
2022/03/30 05:34:36;;;;;;;2.60;2.30;;;10.30;98.00;;;;;;6120019;23;20405;-72
2022/03/30 05:37:04;;;;;;;2.03;1.67;;;10.20;98.00;;;;;;6119707;23;20417;-72
2022/03/30 05:39:32;;;;;;;2.80;2.27;;;10.10;98.00;;;;;;6120026;23;20421;-72
2022/03/30 05:41:59;;;;;;;3.33;2.37;;;10.20;98.00;;;;;;6119878;23;20449;-72
2022/03/30 05:44:26;;;;;;;2.10;1.90;;;10.20;98.00;;;;;;6119992;23;20499;-72
2022/03/30 05:46:53;;;;;;;3.70;2.27;;;10.20;98.00;;;;;;6119769;23;20461;-72
2022/03/30 05:49:20;;;;;;;6.03;3.17;;;10.20;98.00;;;;;;6119952;23;20441;-72
2022/03/30 05:51:47;;;;;;;1.33;1.30;;;10.10;98.00;;;;;;6119718;23;20401;-71
2022/03/30 05:54:14;;;;;;;1.67;1.60;;;10.00;98.00;;;;;;6119875;23;21028;-72
2022/03/30 05:59:26;;;;;;;2.10;1.90;;;10.30;98.00;;;;;;6103987;23;20417;-72
2022/03/30 06:01:53;;;;;;;3.13;2.47;;;10.30;98.00;;;;;;6119142;23;20421;-73
2022/03/30 06:04:20;;;;;;;1.77;1.63;;;10.40;98.00;;;;;;6119687;23;20401;-72
2022/03/30 06:06:47;;;;;;;2.00;1.90;;;10.30;98.00;;;;;;6093994;23;20420;-73
2022/03/30 06:09:15;;;;;;;2.77;1.93;;;10.30;98.00;;;;;;6119935;23;20458;-72
2022/03/30 06:11:44;;;;;;;2.80;1.63;;;10.20;98.00;;;;;;6119482;23;20435;-72
2022/03/30 06:17:06;;;;;;;2.30;1.70;;;10.20;98.00;;;;;;6119061;23;20429;-72
2022/03/30 06:19:34;;;;;;;2.47;1.73;;;10.20;98.00;;;;;;6119397;23;20430;-72
2022/03/30 06:22:05;;;;;;;5.47;2.93;;;10.30;98.00;;;;;;6119600;23;20461;-72
2022/03/30 06:24:32;;;;;;;4.27;2.00;;;10.20;98.00;;;;;;6119509;23;20519;-73
2022/03/30 06:27:01;;;;;;;3.20;2.27;;;10.10;98.00;;;;;;6119709;23;20421;-72
2022/03/30 06:29:28;;;;;;;3.80;2.20;;;10.00;98.00;;;;;;6119567;23;20480;-72
2022/03/30 06:31:54;;;;;;;4.47;3.27;;;10.00;98.00;;;;;;6119330;23;20417;-72
2022/03/30 06:34:22;;;;;;;2.33;1.77;;;9.80;98.00;;;;;;6119659;23;20445;-72
2022/03/30 06:36:49;;;;;;;2.70;2.00;;;9.70;98.00;;;;;;6121457;23;20726;-72
2022/03/30 06:39:16;;;;;;;3.90;3.13;;;9.60;98.00;;;;;;6120022;23;20500;-72
2022/03/30 06:41:46;;;;;;;4.63;3.57;;;9.60;98.00;;;;;;6121446;23;20455;-72
2022/03/30 06:44:14;;;;;;;2.80;2.63;;;9.60;98.00;;;;;;6120512;23;20894;-72
2022/03/30 06:46:41;;;;;;;3.57;2.70;;;9.60;98.00;;;;;;6120748;23;20427;-73
2022/03/30 06:49:09;;;;;;;3.80;2.50;;;9.70;98.00;;;;;;6120762;23;20421;-71
2022/03/30 06:51:37;;;;;;;3.27;2.53;;;9.70;98.00;;;;;;6120539;23;20439;-70
2022/03/30 06:54:04;;;;;;;3.97;2.00;;;9.80;98.00;;;;;;6120901;23;20422;-71
2022/03/30 06:56:31;;;;;;;1.40;1.37;;;9.80;98.00;;;;;;6120777;23;20449;-70
2022/03/30 06:58:59;;;;;;;1.90;1.87;;;9.90;98.00;;;;;;6121085;23;20409;-70
2022/03/30 07:01:27;;;;;;;2.27;2.10;;;10.00;98.00;;;;;;6120674;23;20408;-70
2022/03/30 07:03:54;;;;;;;1.90;1.87;;;10.00;98.00;;;;;;6120776;23;20442;-70
2022/03/30 07:06:21;;;;;;;2.17;1.83;;;10.00;98.00;;;;;;6120352;23;20424;-70
2022/03/30 07:11:32;;;;;;;2.17;2.03;;;9.90;98.00;;;;;;6078948;23;20447;-69
2022/03/30 07:13:59;;;;;;;4.10;2.87;;;9.80;98.00;;;;;;6120794;23;20726;-70
2022/03/30 07:16:28;;;;;;;2.07;1.93;;;9.70;98.00;;;;;;6120829;23;20422;-70
2022/03/30 07:18:55;;;;;;;2.10;1.83;;;9.60;98.00;;;;;;6120673;23;20417;-70
2022/03/30 07:21:22;;;;;;;2.40;2.00;;;9.60;98.00;;;;;;6120263;23;20417;-70
2022/03/30 07:23:49;;;;;;;1.57;1.40;;;9.60;98.00;;;;;;6120652;23;20417;-71
2022/03/30 07:26:16;;;;;;;2.43;2.10;;;9.70;98.00;;;;;;6120276;23;20440;-71
2022/03/30 07:28:43;;;;;;;3.67;2.20;;;9.80;98.00;;;;;;6120417;23;20436;-69
2022/03/30 07:31:10;;;;;;;4.73;2.30;;;9.90;98.00;;;;;;6120372;23;20449;-70
2022/03/30 07:33:38;;;;;;;2.97;2.00;;;10.20;98.00;;;;;;6120586;23;20477;-70
2022/03/30 07:36:05;;;;;;;2.70;1.93;;;10.20;98.00;;;;;;6120486;23;20402;-70
2022/03/30 07:38:32;;;;;;;2.50;2.10;;;10.20;98.00;;;;;;6120732;23;20457;-71
2022/03/30 07:41:02;;;;;;;3.97;2.97;;;10.30;98.00;;;;;;6120531;23;20738;-70
2022/03/30 07:43:29;;;;;;;6.07;3.23;;;10.40;98.00;;;;;;6119764;23;20425;-70
2022/03/30 07:46:03;;;;;;;4.83;1.83;;;10.60;98.00;;;;;;6120178;23;20417;-70
2022/03/30 07:48:30;;;;;;;8.63;3.30;;;10.70;98.00;;;;;;6118867;23;20484;-71
2022/03/30 07:50:59;;;;;;;2.47;2.30;;;10.70;98.00;;;;;;6118013;23;20481;-71
2022/03/30 07:53:26;;;;;;;2.07;1.50;;;10.60;98.00;;;;;;6119071;23;20938;-71
2022/03/30 07:55:53;;;;;;;3.10;2.73;;;10.60;98.00;;;;;;6119282;23;20416;-72
2022/03/30 07:58:21;;;;;;;4.93;3.30;;;10.60;98.00;;;;;;6093248;23;20561;-71
2022/03/30 08:00:48;;;;;;;2.67;2.40;;;10.50;98.00;;;;;;6119816;23;20750;-69
2022/03/30 08:03:15;;;;;;;4.83;3.27;;;10.40;98.00;;;;;;6119258;23;20452;-69
2022/03/30 08:05:43;;;;;;;2.67;2.20;;;10.60;98.00;;;;;;6119422;23;20405;-68
2022/03/30 08:08:11;;;;;;;1.90;1.80;;;10.80;98.00;;;;;;6118267;23;20454;-69
2022/03/30 08:10:38;;;;;;;2.13;2.00;;;10.90;98.00;;;;;;6117716;23;20430;-69
2022/03/30 08:13:06;;;;;;;2.87;2.73;;;11.00;98.00;;;;;;6119023;23;20414;-68
2022/03/30 08:15:35;;;;;;;5.30;3.03;;;11.00;98.00;;;;;;6117202;23;20405;-70
2022/03/30 08:18:05;;;;;;;2.90;2.20;;;10.90;98.00;;;;;;6118149;23;20449;-72
2022/03/30 08:23:35;;;;;;;2.97;1.80;;;10.70;98.00;;;;;;6029682;23;20424;-71
2022/03/30 08:26:03;;;;;;;1.70;1.60;;;10.60;98.00;;;;;;6029610;23;20446;-71
2022/03/30 08:28:30;;;;;;;2.60;2.40;;;10.60;98.00;;;;;;6071024;23;20420;-71
2022/03/30 08:30:57;;;;;;;4.90;2.70;;;10.80;98.00;;;;;;6119093;23;20449;-71
2022/03/30 08:33:26;;;;;;;2.90;2.03;;;10.90;98.00;;;;;;6119555;23;20655;-70
2022/03/30 08:35:54;;;;;;;1.97;1.87;;;11.10;98.00;;;;;;6119554;23;20420;-71
2022/03/30 08:38:21;;;;;;;2.43;2.27;;;11.00;98.00;;;;;;6119803;23;20494;-72
2022/03/30 08:40:51;;;;;;;3.37;2.10;;;11.00;98.00;;;;;;6119511;23;20398;-71
2022/03/30 08:43:18;;;;;;;2.70;2.00;;;10.90;98.00;;;;;;6119639;23;20898;-71
2022/03/30 08:45:45;;;;;;;6.27;3.43;;;10.80;98.00;;;;;;6093724;23;20432;-71
2022/03/30 08:48:12;;;;;;;3.23;2.40;;;10.70;98.00;;;;;;6113875;23;20418;-71
2022/03/30 08:50:41;;;;;;;3.60;3.00;;;10.80;98.00;;;;;;6119060;23;20495;-72
2022/03/30 08:53:08;;;;;;;7.63;3.90;;;11.00;98.00;;;;;;6119241;23;20422;-69
2022/03/30 08:55:35;;;;;;;2.47;1.83;;;11.00;98.00;;;;;;6119623;23;20417;-72
2022/03/30 08:58:04;;;;;;;6.57;3.33;;;11.10;98.00;;;;;;6093374;23;20406;-72
2022/03/30 09:00:34;;;;;;;2.83;2.40;;;11.20;98.00;;;;;;6118696;23;20425;-71
2022/03/30 09:03:07;;;;;;;6.63;2.90;;;11.20;98.00;;;;;;6128691;23;20401;-71
2022/03/30 09:05:37;;;;;;;2.40;1.93;;;11.20;98.00;;;;;;6129378;23;20444;-73
2022/03/30 09:08:12;;;;;;;3.97;2.70;;;11.20;98.00;;;;;;6118271;23;20413;-72
2022/03/30 09:10:40;;;;;;;2.17;2.03;;;11.20;98.00;;;;;;6119291;23;20435;-71
2022/03/30 09:13:09;;;;;;;2.60;1.57;;;11.20;98.00;;;;;;6118753;23;20439;-72
2022/03/30 09:15:39;;;;;;;4.03;2.60;;;11.10;98.00;;;;;;6119165;23;20790;-71
2022/03/30 09:18:12;;;;;;;5.63;2.50;;;11.10;98.00;;;;;;6118894;23;20727;-71
2022/03/30 09:20:43;;;;;;;6.73;3.20;;;11.30;98.00;;;;;;6094313;23;21288;-71
2022/03/30 09:23:13;;;;;;;3.53;3.23;;;11.40;98.00;;;;;;6119435;23;20441;-71
2022/03/30 09:25:44;;;;;;;3.03;2.70;;;11.40;98.00;;;;;;6119872;23;20452;-72
2022/03/30 09:28:15;;;;;;;2.73;2.33;;;11.50;98.00;;;;;;6119829;23;20460;-73
2022/03/30 09:30:42;;;;;;;2.43;2.20;;;11.50;98.00;;;;;;6120054;23;20437;-72
2022/03/30 09:33:10;;;;;;;2.40;2.20;;;11.60;98.00;;;;;;6119480;23;20410;-70
2022/03/30 09:35:41;;;;;;;2.70;2.60;;;11.60;98.00;;;;;;6119312;23;20409;-71
2022/03/30 09:38:10;;;;;;;1.47;1.47;;;11.40;98.00;;;;;;6119688;23;20432;-71
2022/03/30 09:40:40;;;;;;;6.03;2.47;;;11.50;98.00;;;;;;6119400;23;20400;-71
2022/03/30 09:43:13;;;;;;;3.00;1.83;;;11.50;98.00;;;;;;6118773;23;20452;-71
2022/03/30 09:45:41;;;;;;;2.70;2.43;;;11.60;98.00;;;;;;6119446;23;20490;-70
2022/03/30 09:48:12;;;;;;;2.83;2.03;;;11.50;98.00;;;;;;6119328;23;20909;-71
2022/03/30 09:50:43;;;;;;;3.27;2.23;;;11.60;98.00;;;;;;6118209;23;20446;-71
2022/03/30 09:53:11;;;;;;;2.60;2.47;;;11.50;98.00;;;;;;6119061;23;20411;-71
2022/03/30 09:55:51;;;;;;;2.80;1.83;;;11.70;98.00;;;;;;6118601;23;20427;-72
2022/03/30 09:58:21;;;;;;;3.50;3.30;;;11.80;98.00;;;;;;6119134;23;20815;-69
2022/03/30 10:01:13;;;;;;;4.23;2.23;;;11.70;98.00;;;;;;6118987;23;20492;-70
2022/03/30 10:03:45;;;;;;;2.97;2.20;;;11.50;98.00;;;;;;6119435;23;20435;-70
2022/03/30 10:06:14;;;;;;;2.23;2.03;;;11.60;98.00;;;;;;6093954;23;20442;-70
2022/03/30 10:08:43;;;;;;;2.53;1.97;;;11.50;98.00;;;;;;6118931;23;20428;-71
2022/03/30 10:11:12;;;;;;;7.10;3.63;;;11.50;98.00;;;;;;6120176;23;20767;-70
2022/03/30 10:13:41;;;;;;;5.60;3.07;;;11.60;98.00;;;;;;6119686;23;20414;-71
2022/03/30 10:16:09;;;;;;;2.43;2.07;;;11.50;98.00;;;;;;6119866;23;20487;-70
2022/03/30 10:18:36;;;;;;;5.30;2.90;;;11.40;98.00;;;;;;6120374;23;20409;-71
2022/03/30 10:21:11;;;;;;;2.90;2.40;;;11.30;98.00;;;;;;6120762;23;20760;-70
2022/03/30 10:23:52;;;;;;;1.60;1.60;;;11.30;98.00;;;;;;6120493;23;20460;-71
2022/03/30 10:26:33;;;;;;;4.47;2.37;;;11.60;98.00;;;;;;6093420;23;20537;-71
2022/03/30 10:29:05;;;;;;;1.93;1.90;;;11.70;98.00;;;;;;6120659;23;20724;-70
2022/03/30 10:31:32;;;;;;;3.23;2.77;;;11.90;98.00;;;;;;6120463;23;20432;-70
2022/03/30 10:34:26;;;;;;;3.37;2.43;;;11.90;98.00;;;;;;6120713;23;20420;-71
2022/03/30 10:37:01;;;;;;;3.53;2.63;;;11.80;98.00;;;;;;6120956;23;20817;-70
2022/03/30 10:39:29;;;;;;;2.93;2.40;;;11.90;98.00;;;;;;6120679;23;20487;-70
2022/03/30 10:42:04;;;;;;;2.30;1.77;;;11.80;98.00;;;;;;6120791;23;20397;-69
2022/03/30 10:44:42;;;;;;;3.00;2.53;;;11.70;98.00;;;;;;6120585;23;20406;-69
2022/03/30 10:47:12;;;;;;;5.53;2.80;;;11.80;98.00;;;;;;6120590;23;20732;-70
2022/03/30 10:49:44;;;;;;;3.27;2.60;;;11.80;98.00;;;;;;6092710;23;20814;-71
2022/03/30 10:52:47;;;;;;;2.23;1.90;;;11.70;98.00;;;;;;6120266;23;20461;-70
2022/03/30 10:55:33;;;;;;;2.67;1.87;;;11.50;98.00;;;;;;6120405;23;20473;-70
2022/03/30 10:58:02;;;;;;;3.43;2.43;;;11.40;98.00;;;;;;6130037;23;20414;-70
2022/03/30 11:00:35;;;;;;;1.60;1.57;;;11.50;98.00;;;;;;6120275;23;20504;-70
2022/03/30 11:03:10;;;;;;;1.40;1.33;;;11.40;98.00;;;;;;6120613;23;20401;-71
2022/03/30 11:05:47;;;;;;;1.73;1.47;;;11.60;98.00;;;;;;6120480;23;20448;-70
2022/03/30 11:08:48;;;;;;;1.77;1.60;;;11.80;98.00;;;;;;6119759;23;20487;-70
2022/03/30 11:11:23;;;;;;;2.23;2.10;;;11.90;98.00;;;;;;6119873;23;21136;-71
2022/03/30 11:13:50;;;;;;;1.80;1.43;;;12.10;98.00;;;;;;6119909;23;20453;-70
2022/03/30 11:16:19;;;;;;;2.47;2.20;;;12.10;98.00;;;;;;6120228;23;20424;-70
2022/03/30 11:18:57;;;;;;;3.20;3.00;;;12.20;98.00;;;;;;6120199;23;20415;-71
2022/03/30 11:21:25;;;;;;;1.60;1.60;;;12.30;98.00;;;;;;6120033;23;20399;-70
2022/03/30 11:23:58;;;;;;;1.90;1.80;;;12.30;98.00;;;;;;6095395;23;20396;-69
2022/03/30 11:26:46;;;;;;;1.53;1.43;;;12.40;98.00;;;;;;6094456;23;20441;-70
2022/03/30 11:29:48;;;;;;;2.27;2.10;;;12.50;98.00;;;;;;6120773;23;20425;-70
2022/03/30 11:32:51;;;;;;;1.80;1.40;;;12.50;98.00;;;;;;6120369;23;20447;-71
2022/03/30 11:35:21;;;;;;;2.33;2.20;;;12.60;98.00;;;;;;6119987;23;20412;-70
2022/03/30 11:37:49;;;;;;;3.07;1.47;;;12.80;98.00;;;;;;6120108;23;20409;-70
2022/03/30 11:40:18;;;;;;;1.70;1.47;;;12.80;98.00;;;;;;6119811;23;20433;-71
2022/03/30 11:42:49;;;;;;;3.00;1.83;;;13.00;98.00;;;;;;6119614;23;20411;-71
2022/03/30 11:45:19;;;;;;;2.97;2.60;;;13.00;98.00;;;;;;6119194;23;20413;-70
2022/03/30 11:47:49;;;;;;;1.60;1.50;;;12.80;98.00;;;;;;6119875;23;20408;-70
2022/03/30 11:50:20;;;;;;;2.90;2.07;;;12.70;98.00;;;;;;6119143;23;20477;-70
2022/03/30 11:52:54;;;;;;;5.57;2.30;;;12.70;98.00;;;;;;6120058;23;20465;-70
2022/03/30 11:55:22;;;;;;;2.77;2.00;;;12.80;98.00;;;;;;6120101;23;20422;-70
2022/03/30 11:57:52;;;;;;;4.03;1.83;;;12.90;98.00;;;;;;6119992;23;20403;-70
2022/03/30 12:00:22;;;;;;;2.03;1.63;;;12.90;98.00;;;;;;6120114;23;20477;-70
2022/03/30 12:02:51;;;;;;;2.90;1.97;;;12.90;98.00;;;;;;6120385;23;20732;-70
2022/03/30 12:05:19;;;;;;;2.50;1.97;;;12.80;98.00;;;;;;6120060;23;20810;-70
2022/03/30 12:07:53;;;;;;;6.40;3.43;;;12.60;98.00;;;;;;6120155;23;20423;-70
2022/03/30 12:10:20;;;;;;;2.23;2.10;;;12.60;98.00;;;;;;6119752;23;20861;-70
2022/03/30 12:12:50;;;;;;;5.77;2.33;;;12.60;98.00;;;;;;6119803;23;20457;-70
2022/03/30 12:15:20;;;;;;;4.80;2.30;;;12.50;98.00;;;;;;6119801;23;20906;-69
2022/03/30 12:17:54;;;;;;;1.77;1.63;;;12.30;98.00;;;;;;6119643;23;20753;-70
2022/03/30 12:20:26;;;;;;;1.80;1.60;;;12.20;98.00;;;;;;6120617;23;20414;-70
2022/03/30 12:22:59;;;;;;;6.13;1.80;;;12.10;98.00;;;;;;6120526;23;20455;-69
2022/03/30 12:25:28;;;;;;;2.27;2.07;;;12.10;98.00;;;;;;6119801;23;20446;-71
2022/03/30 12:27:55;;;;;;;4.70;2.40;;;12.00;98.00;;;;;;6093961;23;20428;-71
2022/03/30 12:30:23;;;;;;;2.03;1.73;;;12.10;98.00;;;;;;6119788;23;20440;-70
2022/03/30 12:32:52;;;;;;;3.73;2.73;;;12.10;98.00;;;;;;6119588;23;20497;-70
2022/03/30 12:35:20;;;;;;;2.10;1.80;;;12.20;98.00;;;;;;6119972;23;20403;-69
2022/03/30 12:37:49;;;;;;;3.00;2.47;;;12.40;98.00;;;;;;6119856;23;20403;-69
2022/03/30 12:40:20;;;;;;;3.13;1.73;;;12.50;98.00;;;;;;6094444;23;20405;-69
2022/03/30 12:42:49;;;;;;;3.80;2.47;;;12.50;98.00;;;;;;6120353;23;20396;-69
2022/03/30 12:45:18;;;;;;;1.60;1.50;;;12.50;98.00;;;;;;6120296;23;20468;-69
2022/03/30 12:47:54;;;;;;;2.80;1.80;;;12.60;98.00;;;;;;6119454;23;20897;-70
2022/03/30 12:50:27;;;;;;;5.47;2.33;;;12.60;98.00;;;;;;6118951;23;20445;-71
2022/03/30 12:52:55;;;;;;;3.23;2.50;;;12.40;98.00;;;;;;6119918;23;20436;-72
2022/03/30 12:55:27;;;;;;;2.43;1.33;;;12.30;98.00;;;;;;6119883;23;20402;-71
2022/03/30 12:57:59;;;;;;;3.03;1.83;;;12.30;98.00;;;;;;6120047;23;20404;-70
2022/03/30 13:00:31;;;;;;;3.77;1.93;;;12.30;98.00;;;;;;6119807;23;20395;-71
2022/03/30 13:03:11;;;;;;;3.33;2.07;;;12.40;98.00;;;;;;6120266;23;20403;-70
2022/03/30 13:05:41;;;;;;;4.70;2.37;;;12.40;98.00;;;;;;6120838;23;20408;-70
2022/03/30 13:08:11;;;;;;;1.70;1.60;;;12.50;98.00;;;;;;6121177;23;20410;-69
2022/03/30 13:10:50;;;;;;;5.03;2.60;;;12.60;98.00;;;;;;6121007;23;21026;-70
2022/03/30 13:13:21;;;;;;;2.93;2.60;;;12.60;98.00;;;;;;6120759;23;20847;-70